KWRB/WRB METAR and TAF weather

Enter ICAO airport designator
Station Type Date Time Source
KWRB METAR 2019/10/22 15:56 UTC NOAA

KWRB 221556Z 29006KT 10SM OVC035 20/13 A2998 RMK AO2A SLP153 T02010131


Station Type Date Time Source
KWRB Decoded METAR 2019/10/22 15:56 UTC NOAA

Warner Robins Air Force Base, GA, United States (KWRB) 32-38N 083-36W
Oct 22, 2019 - 11:56 AM EDT / 2019.10.22 1556 UTC
Wind: from the WNW (290 degrees) at 7 MPH (6 KT):0
Visibility: 10 mile(s):0
Sky conditions: overcast
Temperature: 68.2 F (20.1 C)
Dew Point: 55.6 F (13.1 C)
Relative Humidity: 64%
Pressure (altimeter): 29.98 in. Hg (1015 hPa)
ob: KWRB 221556Z 29006KT 10SM OVC035 20/13 A2998 RMK AO2A SLP153 T02010131
cycle: 16

Station Type Date Time Source
KWRB TAF 2019/10/22 15:06 UTC NOAA

TAF
AMD KWRB 221500Z 2215/2319 31012G20KT 9999 BKN022 BKN040 QNH2995INS
BECMG 2216/2217 31010G18KT 9999 SCT045 QNH2992INS
BECMG 2222/2223 28006KT 9999 SKC QNH2993INS TX24/2219Z TN10/2311Z

Example: see airport list